Time;durP1;ratioP1;P1;durP2;ratioP2;P2;SDS_P1;SDS_P2;PMS_P1;PMS_P2;Temp;Humidity;BMP_temperature;BMP_pressure;BME280_temperature;BME280_humidity;BME280_pressure;Samples;Min_cycle;Max_cycle;Signal;HPM_P1;HPM_P2
2024/01/03 00:00:22;;;;;;;9.02;1.52;;;;;;;;;;4995624;28;101250;-80
2024/01/03 00:02:49;;;;;;;7.82;1.50;;;;;;;;;;4998274;28;99184;-79
2024/01/03 00:05:21;;;;;;;10.52;1.58;;;;;;;;;;4998665;28;98694;-78
2024/01/03 00:07:48;;;;;;;8.98;1.52;;;;;;;;;;4993224;28;101314;-78
2024/01/03 00:10:17;;;;;;;8.02;1.40;;;;;;;;;;5009759;28;98466;-79
2024/01/03 00:12:44;;;;;;;8.00;1.45;;;;;;;;;;4997488;28;98233;-80
2024/01/03 00:15:33;;;;;;;7.55;1.42;;;;;;;;;;4995948;28;98775;-79
2024/01/03 00:18:03;;;;;;;10.00;1.60;;;;;;;;;;4996788;28;98591;-79
2024/01/03 00:20:32;;;;;;;6.30;1.40;;;;;;;;;;4999688;28;98936;-79
2024/01/03 00:22:59;;;;;;;9.85;1.52;;;;;;;;;;4995991;28;98269;-78
2024/01/03 00:25:28;;;;;;;7.13;1.40;;;;;;;;;;5005517;28;101364;-79
2024/01/03 00:27:55;;;;;;;7.55;1.42;;;;;;;;;;5001931;28;98679;-80
2024/01/03 00:30:22;;;;;;;7.65;1.45;;;;;;;;;;5012198;27;98906;-79
2024/01/03 00:32:48;;;;;;;5.88;1.60;;;;;;;;;;5003250;28;98439;-79
2024/01/03 00:35:29;;;;;;;4.95;1.20;;;;;;;;;;5003768;28;101027;-79
2024/01/03 00:37:55;;;;;;;8.73;1.20;;;;;;;;;;5009755;28;97815;-78
2024/01/03 00:40:42;;;;;;;6.07;1.17;;;;;;;;;;4998325;28;98810;-78
2024/01/03 00:43:09;;;;;;;6.45;1.30;;;;;;;;;;5015503;28;99776;-79
2024/01/03 00:45:35;;;;;;;5.82;1.13;;;;;;;;;;5015421;28;100725;-80
2024/01/03 00:48:02;;;;;;;6.38;1.40;;;;;;;;;;5016772;28;98773;-80
2024/01/03 00:50:29;;;;;;;6.65;1.30;;;;;;;;;;5012987;28;98733;-79
2024/01/03 00:52:55;;;;;;;7.45;1.35;;;;;;;;;;5004995;28;105691;-80
2024/01/03 00:55:22;;;;;;;5.72;1.15;;;;;;;;;;5016505;28;99159;-79
2024/01/03 00:57:48;;;;;;;9.40;1.75;;;;;;;;;;5017318;28;98445;-80
2024/01/03 01:00:15;;;;;;;9.02;1.80;;;;;;;;;;4982823;28;98507;-79
2024/01/03 01:02:43;;;;;;;7.60;1.40;;;;;;;;;;5002382;27;98062;-79
2024/01/03 01:05:10;;;;;;;10.60;1.60;;;;;;;;;;4997924;27;98103;-80
2024/01/03 01:07:37;;;;;;;8.50;1.40;;;;;;;;;;5010163;28;98677;-80
2024/01/03 01:10:03;;;;;;;6.40;1.45;;;;;;;;;;5017490;27;98943;-78
2024/01/03 01:12:30;;;;;;;6.75;1.55;;;;;;;;;;5017100;27;99651;-80
2024/01/03 01:14:59;;;;;;;11.77;1.80;;;;;;;;;;5017690;28;99384;-78
2024/01/03 01:17:25;;;;;;;8.20;1.45;;;;;;;;;;5018176;28;98387;-79
2024/01/03 01:19:52;;;;;;;7.78;1.50;;;;;;;;;;5017675;28;98348;-79
2024/01/03 01:22:19;;;;;;;7.72;1.52;;;;;;;;;;4999182;27;98826;-78
2024/01/03 01:24:45;;;;;;;7.43;1.55;;;;;;;;;;5000112;28;99819;-79
2024/01/03 01:27:12;;;;;;;9.40;1.80;;;;;;;;;;4998136;28;98084;-80
2024/01/03 01:29:38;;;;;;;8.52;1.60;;;;;;;;;;4998046;28;98381;-79
2024/01/03 01:32:06;;;;;;;7.88;1.40;;;;;;;;;;4996637;28;99074;-79
2024/01/03 01:34:32;;;;;;;9.25;1.45;;;;;;;;;;4994718;28;100737;-79
2024/01/03 01:36:59;;;;;;;7.63;1.58;;;;;;;;;;5004274;28;98224;-80
2024/01/03 01:39:25;;;;;;;9.35;1.67;;;;;;;;;;4984813;28;100962;-79
2024/01/03 01:41:52;;;;;;;10.43;1.70;;;;;;;;;;4984138;28;101505;-79
2024/01/03 01:44:18;;;;;;;8.98;1.58;;;;;;;;;;4993559;28;98693;-80
2024/01/03 01:46:45;;;;;;;8.38;1.83;;;;;;;;;;4999327;28;98870;-80
2024/01/03 01:49:13;;;;;;;9.02;1.60;;;;;;;;;;5006027;28;98450;-80
2024/01/03 01:51:39;;;;;;;7.55;1.35;;;;;;;;;;5013162;28;98433;-80
2024/01/03 01:54:06;;;;;;;9.95;1.55;;;;;;;;;;5013440;28;98638;-79
2024/01/03 01:56:33;;;;;;;11.23;1.98;;;;;;;;;;4997014;27;98700;-80
2024/01/03 01:58:59;;;;;;;10.35;1.95;;;;;;;;;;4979623;28;101333;-80
2024/01/03 02:01:27;;;;;;;10.10;1.70;;;;;;;;;;4995670;28;101618;-80
2024/01/03 02:03:53;;;;;;;11.98;2.00;;;;;;;;;;4996022;28;98364;-81
2024/01/03 02:06:21;;;;;;;7.80;1.63;;;;;;;;;;4994852;28;98389;-80
2024/01/03 02:08:47;;;;;;;10.20;1.95;;;;;;;;;;4999308;28;100886;-80
2024/01/03 02:11:14;;;;;;;9.15;1.67;;;;;;;;;;4995931;28;98754;-80
2024/01/03 02:13:43;;;;;;;8.90;1.70;;;;;;;;;;4995920;28;100757;-82
2024/01/03 02:16:09;;;;;;;13.32;2.00;;;;;;;;;;4993649;28;97943;-82
2024/01/03 02:18:41;;;;;;;13.63;2.20;;;;;;;;;;4993545;28;105551;-82
2024/01/03 02:21:13;;;;;;;11.07;1.92;;;;;;;;;;4977858;28;98279;-81
2024/01/03 02:23:39;;;;;;;8.07;1.63;;;;;;;;;;4988860;28;99445;-82
2024/01/03 02:26:06;;;;;;;9.73;1.88;;;;;;;;;;4995868;28;101306;-82
2024/01/03 02:28:47;;;;;;;12.10;2.08;;;;;;;;;;4978175;28;105182;-83
2024/01/03 02:31:13;;;;;;;12.63;1.85;;;;;;;;;;5012104;27;98406;-82
2024/01/03 02:33:40;;;;;;;10.32;1.80;;;;;;;;;;5010133;28;100067;-84
2024/01/03 02:36:06;;;;;;;7.70;1.80;;;;;;;;;;5001075;28;98274;-83
2024/01/03 02:38:33;;;;;;;12.23;2.10;;;;;;;;;;5012871;28;99384;-82
2024/01/03 02:40:59;;;;;;;10.98;1.90;;;;;;;;;;4987805;28;98477;-82
2024/01/03 02:43:26;;;;;;;11.85;1.90;;;;;;;;;;4998278;28;98475;-83
2024/01/03 02:45:52;;;;;;;13.25;2.05;;;;;;;;;;4996627;28;98468;-83
2024/01/03 02:48:19;;;;;;;13.90;1.80;;;;;;;;;;4995169;28;102070;-82
2024/01/03 02:50:48;;;;;;;10.68;1.90;;;;;;;;;;4996190;28;98892;-81
2024/01/03 02:53:17;;;;;;;9.27;1.90;;;;;;;;;;5003420;28;98346;-81
2024/01/03 02:55:44;;;;;;;11.85;2.25;;;;;;;;;;4983092;28;98821;-81
2024/01/03 02:58:11;;;;;;;11.57;1.80;;;;;;;;;;4977492;28;101281;-82
2024/01/03 03:00:39;;;;;;;10.57;1.80;;;;;;;;;;4999916;28;98872;-82
2024/01/03 03:03:05;;;;;;;11.38;2.17;;;;;;;;;;5001417;28;98265;-82
2024/01/03 03:05:32;;;;;;;11.55;1.92;;;;;;;;;;5000300;28;98850;-82
2024/01/03 03:07:59;;;;;;;9.07;1.75;;;;;;;;;;5014120;28;100675;-81
2024/01/03 03:10:25;;;;;;;11.07;1.70;;;;;;;;;;5001309;28;105423;-82
2024/01/03 03:12:52;;;;;;;13.23;2.10;;;;;;;;;;5003334;28;98807;-83
2024/01/03 03:15:18;;;;;;;8.27;1.70;;;;;;;;;;4998578;28;98178;-83
2024/01/03 03:17:45;;;;;;;12.38;2.05;;;;;;;;;;4983919;28;99933;-82
2024/01/03 03:20:12;;;;;;;10.15;1.88;;;;;;;;;;4998433;28;98927;-81
2024/01/03 03:22:38;;;;;;;11.43;1.90;;;;;;;;;;5000198;28;98319;-81
2024/01/03 03:25:05;;;;;;;8.95;1.77;;;;;;;;;;4999426;28;98625;-80
2024/01/03 03:27:32;;;;;;;11.07;1.90;;;;;;;;;;5000872;28;99191;-81
2024/01/03 03:29:58;;;;;;;9.07;1.90;;;;;;;;;;4999867;28;97493;-82
2024/01/03 03:32:25;;;;;;;9.00;1.80;;;;;;;;;;4998594;28;100112;-83
2024/01/03 03:34:52;;;;;;;7.65;1.70;;;;;;;;;;4997448;28;98792;-81
2024/01/03 03:37:19;;;;;;;11.88;1.83;;;;;;;;;;4998264;28;99208;-81
2024/01/03 03:39:45;;;;;;;10.43;2.15;;;;;;;;;;4994350;28;105264;-82
2024/01/03 03:42:12;;;;;;;13.25;1.88;;;;;;;;;;5001805;28;98387;-80
2024/01/03 03:44:40;;;;;;;11.98;2.10;;;;;;;;;;5017876;28;101262;-82
2024/01/03 03:47:07;;;;;;;12.00;2.08;;;;;;;;;;5001327;27;98822;-80
2024/01/03 03:49:33;;;;;;;10.48;2.00;;;;;;;;;;4999892;27;98273;-82
2024/01/03 03:52:00;;;;;;;13.10;2.33;;;;;;;;;;4999556;27;99170;-81
2024/01/03 03:54:26;;;;;;;9.00;1.95;;;;;;;;;;4994528;28;98129;-82
2024/01/03 03:56:53;;;;;;;11.88;1.92;;;;;;;;;;4985431;28;99008;-81
2024/01/03 03:59:23;;;;;;;12.75;2.03;;;;;;;;;;4993431;28;100305;-78
2024/01/03 04:01:50;;;;;;;9.60;2.10;;;;;;;;;;4980735;28;99176;-81
2024/01/03 04:04:17;;;;;;;10.98;2.03;;;;;;;;;;4997545;28;101064;-79
2024/01/03 04:06:44;;;;;;;11.98;1.95;;;;;;;;;;4999145;28;99748;-79
2024/01/03 04:09:10;;;;;;;10.93;2.10;;;;;;;;;;4999189;28;98364;-80
2024/01/03 04:11:40;;;;;;;13.77;2.20;;;;;;;;;;4981582;28;101415;-77
2024/01/03 04:14:07;;;;;;;12.98;2.25;;;;;;;;;;4997567;28;101073;-80
2024/01/03 04:16:34;;;;;;;12.45;2.25;;;;;;;;;;4998967;28;98262;-81
2024/01/03 04:19:01;;;;;;;12.65;2.42;;;;;;;;;;5001835;28;98906;-81
2024/01/03 04:21:31;;;;;;;11.30;2.08;;;;;;;;;;4997511;28;98433;-79
2024/01/03 04:23:58;;;;;;;12.30;2.45;;;;;;;;;;4998122;28;100884;-80
2024/01/03 04:26:25;;;;;;;13.48;2.15;;;;;;;;;;4997248;28;99296;-81
2024/01/03 04:28:51;;;;;;;12.70;2.38;;;;;;;;;;5012435;28;98201;-80
2024/01/03 04:31:18;;;;;;;12.18;2.10;;;;;;;;;;4999085;28;98807;-81
2024/01/03 04:33:45;;;;;;;13.20;2.20;;;;;;;;;;5011799;28;98980;-80
2024/01/03 04:36:11;;;;;;;12.70;2.35;;;;;;;;;;4999748;28;98325;-80
2024/01/03 04:38:38;;;;;;;10.55;2.10;;;;;;;;;;5007318;28;99321;-80
2024/01/03 04:41:04;;;;;;;13.93;2.17;;;;;;;;;;4980501;28;99559;-79
2024/01/03 04:43:31;;;;;;;14.48;2.92;;;;;;;;;;4990239;27;98503;-79
2024/01/03 04:45:57;;;;;;;16.48;2.25;;;;;;;;;;4998025;28;98753;-80
2024/01/03 04:48:24;;;;;;;17.27;2.38;;;;;;;;;;4996743;28;98399;-81
2024/01/03 04:50:51;;;;;;;15.52;2.47;;;;;;;;;;5004910;27;99019;-80
2024/01/03 04:53:17;;;;;;;14.40;2.20;;;;;;;;;;5007728;28;99190;-80
2024/01/03 04:55:45;;;;;;;13.18;2.70;;;;;;;;;;5005339;27;98285;-80
2024/01/03 04:58:11;;;;;;;13.98;2.15;;;;;;;;;;5021034;28;101236;-79
2024/01/03 05:00:38;;;;;;;15.20;2.65;;;;;;;;;;4992800;28;100506;-80
2024/01/03 05:03:04;;;;;;;13.63;2.72;;;;;;;;;;4981910;28;98116;-80
2024/01/03 05:05:31;;;;;;;11.90;2.33;;;;;;;;;;5006370;28;99152;-79
2024/01/03 05:07:58;;;;;;;10.38;2.20;;;;;;;;;;5018870;28;97800;-79
2024/01/03 05:10:24;;;;;;;12.80;2.42;;;;;;;;;;5017396;28;98368;-80
2024/01/03 05:12:51;;;;;;;11.55;2.08;;;;;;;;;;5018125;28;98890;-79
2024/01/03 05:15:17;;;;;;;10.75;1.98;;;;;;;;;;5014978;28;99489;-80
2024/01/03 05:17:46;;;;;;;10.18;2.15;;;;;;;;;;5017594;28;100151;-79
2024/01/03 05:20:13;;;;;;;12.70;2.40;;;;;;;;;;4999716;28;99086;-80
2024/01/03 05:22:40;;;;;;;12.90;2.20;;;;;;;;;;5001223;28;98512;-79
2024/01/03 05:25:08;;;;;;;9.98;2.10;;;;;;;;;;4995901;28;101704;-80
2024/01/03 05:27:34;;;;;;;12.48;2.35;;;;;;;;;;4998543;28;98546;-78
2024/01/03 05:30:01;;;;;;;12.43;2.30;;;;;;;;;;4997959;28;98541;-80
2024/01/03 05:32:28;;;;;;;11.35;2.00;;;;;;;;;;4995816;28;99840;-79
2024/01/03 05:34:54;;;;;;;11.02;2.28;;;;;;;;;;4997451;28;98497;-79
2024/01/03 05:37:21;;;;;;;12.27;2.22;;;;;;;;;;5012663;28;101115;-79
2024/01/03 05:39:48;;;;;;;12.38;2.65;;;;;;;;;;4988152;28;99891;-80
2024/01/03 05:42:14;;;;;;;10.32;2.17;;;;;;;;;;4992867;28;98595;-81
2024/01/03 05:44:41;;;;;;;12.88;2.08;;;;;;;;;;5013857;27;98983;-82
2024/01/03 05:47:07;;;;;;;13.20;2.10;;;;;;;;;;4997275;28;98431;-82
2024/01/03 05:49:34;;;;;;;11.13;1.90;;;;;;;;;;4998635;27;98890;-81
2024/01/03 05:52:01;;;;;;;13.32;2.20;;;;;;;;;;4996867;28;98697;-82
2024/01/03 05:54:28;;;;;;;12.32;2.08;;;;;;;;;;4997871;27;98077;-81
2024/01/03 05:56:54;;;;;;;12.48;2.10;;;;;;;;;;4997605;28;98835;-82
2024/01/03 05:59:21;;;;;;;9.95;1.83;;;;;;;;;;4997502;28;98811;-81
2024/01/03 06:01:48;;;;;;;9.85;1.95;;;;;;;;;;5016510;28;98547;-83
2024/01/03 06:04:14;;;;;;;14.02;2.10;;;;;;;;;;5015797;28;100787;-82
2024/01/03 06:06:41;;;;;;;12.38;2.47;;;;;;;;;;5015914;28;98881;-83
2024/01/03 06:09:09;;;;;;;10.18;1.92;;;;;;;;;;5005045;28;98544;-82
2024/01/03 06:11:35;;;;;;;8.10;1.63;;;;;;;;;;5004444;28;98786;-81
2024/01/03 06:14:02;;;;;;;8.73;1.70;;;;;;;;;;5012038;28;98255;-80
2024/01/03 06:16:29;;;;;;;11.35;1.95;;;;;;;;;;5012560;28;101623;-80
2024/01/03 06:18:55;;;;;;;9.70;1.92;;;;;;;;;;4997243;28;99270;-80
2024/01/03 06:21:22;;;;;;;11.02;1.83;;;;;;;;;;4979829;28;97708;-80
2024/01/03 06:23:49;;;;;;;9.82;1.95;;;;;;;;;;5011188;28;98108;-80
2024/01/03 06:26:15;;;;;;;11.55;2.03;;;;;;;;;;4997557;28;99118;-80
2024/01/03 06:28:42;;;;;;;11.13;2.00;;;;;;;;;;5007970;28;98966;-80
2024/01/03 06:31:09;;;;;;;8.90;1.63;;;;;;;;;;5012540;27;100069;-81
2024/01/03 06:33:35;;;;;;;10.18;1.63;;;;;;;;;;5011789;28;98965;-80
2024/01/03 06:36:02;;;;;;;9.40;1.60;;;;;;;;;;5003678;27;98624;-79
2024/01/03 06:38:29;;;;;;;8.77;1.60;;;;;;;;;;4994860;27;99051;-81
2024/01/03 06:40:56;;;;;;;9.45;2.05;;;;;;;;;;5016895;27;98509;-80
2024/01/03 06:43:22;;;;;;;7.93;1.33;;;;;;;;;;5003204;28;101009;-80
2024/01/03 06:45:49;;;;;;;9.60;1.92;;;;;;;;;;4994399;28;98227;-81
2024/01/03 06:48:16;;;;;;;6.07;1.35;;;;;;;;;;4981945;28;105124;-81
2024/01/03 06:50:43;;;;;;;8.15;1.67;;;;;;;;;;4985040;28;101371;-81
2024/01/03 06:53:09;;;;;;;7.93;1.63;;;;;;;;;;4999741;28;98995;-80
2024/01/03 06:55:36;;;;;;;7.80;1.30;;;;;;;;;;5000024;28;99012;-80
2024/01/03 06:58:03;;;;;;;7.70;1.42;;;;;;;;;;5001293;28;98931;-81
2024/01/03 07:00:29;;;;;;;7.20;1.42;;;;;;;;;;5018604;28;98248;-81
2024/01/03 07:02:56;;;;;;;6.00;1.30;;;;;;;;;;5019664;28;101260;-81
2024/01/03 07:05:23;;;;;;;7.50;1.45;;;;;;;;;;4998805;28;102032;-81
2024/01/03 07:07:49;;;;;;;8.45;1.73;;;;;;;;;;5001215;28;98507;-81
2024/01/03 07:10:16;;;;;;;6.82;1.20;;;;;;;;;;5037331;27;99085;-82
2024/01/03 07:12:42;;;;;;;8.63;1.55;;;;;;;;;;5036939;27;98478;-79
2024/01/03 07:15:09;;;;;;;13.20;1.55;;;;;;;;;;5002522;28;100743;-80
2024/01/03 07:17:36;;;;;;;11.27;1.45;;;;;;;;;;5007615;28;100109;-80
2024/01/03 07:20:03;;;;;;;7.90;1.38;;;;;;;;;;5015130;28;98270;-81
2024/01/03 07:22:29;;;;;;;7.70;1.48;;;;;;;;;;5003266;28;98406;-80
2024/01/03 07:24:56;;;;;;;9.15;1.42;;;;;;;;;;5011187;28;100744;-81
2024/01/03 07:27:22;;;;;;;7.15;1.38;;;;;;;;;;5000306;27;98420;-82
2024/01/03 07:29:49;;;;;;;6.03;1.50;;;;;;;;;;4999171;28;98760;-80
2024/01/03 07:32:16;;;;;;;6.95;1.02;;;;;;;;;;5002519;27;99164;-81
2024/01/03 07:34:42;;;;;;;6.10;1.08;;;;;;;;;;5001739;27;98415;-80
2024/01/03 07:37:09;;;;;;;7.95;1.40;;;;;;;;;;5011090;28;98754;-80
2024/01/03 07:39:36;;;;;;;6.45;1.25;;;;;;;;;;4999376;28;98663;-81
2024/01/03 07:42:02;;;;;;;5.57;1.20;;;;;;;;;;5000144;28;98928;-81
2024/01/03 07:44:34;;;;;;;6.38;1.20;;;;;;;;;;4997830;28;98520;-81
2024/01/03 07:47:01;;;;;;;6.65;1.00;;;;;;;;;;5000510;28;99323;-81
2024/01/03 07:49:27;;;;;;;3.83;1.00;;;;;;;;;;4998883;28;98989;-81
2024/01/03 07:51:54;;;;;;;5.53;1.00;;;;;;;;;;4998021;28;101613;-81
2024/01/03 07:54:20;;;;;;;5.28;1.13;;;;;;;;;;5000007;28;98317;-81
2024/01/03 07:56:47;;;;;;;8.25;1.15;;;;;;;;;;5006611;28;100368;-81
2024/01/03 07:59:13;;;;;;;5.07;0.95;;;;;;;;;;4994722;28;97753;-81
2024/01/03 08:01:40;;;;;;;4.72;1.02;;;;;;;;;;4990226;28;100408;-81
2024/01/03 08:04:06;;;;;;;7.15;1.20;;;;;;;;;;4999257;28;99166;-81
2024/01/03 08:06:33;;;;;;;4.95;1.02;;;;;;;;;;4998056;28;99328;-80
2024/01/03 08:09:00;;;;;;;4.20;1.15;;;;;;;;;;4997695;28;99495;-79
2024/01/03 08:11:26;;;;;;;5.15;1.23;;;;;;;;;;5008182;28;98817;-80
2024/01/03 08:13:53;;;;;;;4.53;1.10;;;;;;;;;;5002845;28;98704;-80
2024/01/03 08:16:19;;;;;;;4.82;1.23;;;;;;;;;;4997487;28;100494;-80
2024/01/03 08:18:46;;;;;;;4.47;0.90;;;;;;;;;;5002056;28;98813;-80
2024/01/03 08:21:14;;;;;;;4.93;1.08;;;;;;;;;;5006879;28;98951;-80
2024/01/03 08:23:44;;;;;;;4.50;1.00;;;;;;;;;;5010064;28;97437;-80
2024/01/03 08:26:12;;;;;;;6.85;1.42;;;;;;;;;;4981485;28;98372;-80
2024/01/03 08:28:42;;;;;;;5.35;1.00;;;;;;;;;;5012298;28;100375;-80
2024/01/03 08:31:13;;;;;;;4.28;1.20;;;;;;;;;;4996172;27;101456;-81
2024/01/03 08:33:39;;;;;;;4.75;1.00;;;;;;;;;;4997379;28;98263;-80
2024/01/03 08:36:09;;;;;;;5.00;0.98;;;;;;;;;;4997039;28;100364;-80
2024/01/03 08:38:36;;;;;;;4.18;0.90;;;;;;;;;;4993211;28;106746;-81
2024/01/03 08:41:02;;;;;;;6.05;1.13;;;;;;;;;;4976964;28;101135;-80
2024/01/03 08:43:29;;;;;;;4.60;1.10;;;;;;;;;;4983476;28;98950;-80
2024/01/03 08:45:56;;;;;;;5.72;1.30;;;;;;;;;;4996745;28;106235;-80
2024/01/03 08:48:22;;;;;;;6.55;1.30;;;;;;;;;;4996057;28;98483;-80
2024/01/03 08:50:49;;;;;;;6.55;1.27;;;;;;;;;;5010116;27;99085;-80
2024/01/03 08:53:16;;;;;;;6.95;1.10;;;;;;;;;;5004982;28;105928;-80
2024/01/03 08:55:42;;;;;;;5.95;1.30;;;;;;;;;;5012107;28;99040;-80
2024/01/03 08:58:09;;;;;;;3.95;0.90;;;;;;;;;;5014584;28;98902;-80
2024/01/03 09:00:36;;;;;;;4.85;1.10;;;;;;;;;;5000550;28;98515;-82
2024/01/03 09:03:03;;;;;;;6.07;1.40;;;;;;;;;;4999918;28;101739;-82
2024/01/03 09:05:29;;;;;;;6.03;1.23;;;;;;;;;;5007324;27;98126;-81
2024/01/03 09:07:56;;;;;;;5.65;1.10;;;;;;;;;;5003429;28;98416;-82
2024/01/03 09:10:23;;;;;;;4.72;1.10;;;;;;;;;;4995753;27;98983;-82
2024/01/03 09:12:49;;;;;;;9.15;1.60;;;;;;;;;;4999152;28;97797;-82
2024/01/03 09:15:16;;;;;;;7.53;1.50;;;;;;;;;;4985767;28;100418;-82
2024/01/03 09:17:43;;;;;;;6.30;1.10;;;;;;;;;;4996463;28;98873;-82
2024/01/03 09:20:11;;;;;;;6.30;1.20;;;;;;;;;;5017169;28;99435;-82
2024/01/03 09:22:38;;;;;;;4.80;1.00;;;;;;;;;;4992099;28;106068;-82
2024/01/03 09:25:05;;;;;;;;;;;;;;;;;;4991523;28;98220;-82
2024/01/03 09:27:31;;;;;;;4.35;1.05;;;;;;;;;;4999742;28;98144;-82
2024/01/03 09:29:58;;;;;;;6.60;1.40;;;;;;;;;;4997161;28;98807;-81
2024/01/03 09:32:24;;;;;;;7.13;1.40;;;;;;;;;;4994576;28;98714;-81
2024/01/03 09:34:52;;;;;;;5.63;1.15;;;;;;;;;;5001091;28;101144;-82
2024/01/03 09:37:19;;;;;;;7.05;1.52;;;;;;;;;;5007603;28;98132;-83
2024/01/03 09:39:47;;;;;;;5.90;1.25;;;;;;;;;;5005200;28;98253;-82
2024/01/03 09:42:13;;;;;;;6.00;1.15;;;;;;;;;;4996389;28;99705;-80
2024/01/03 09:44:41;;;;;;;5.18;1.10;;;;;;;;;;5008021;28;99406;-80
2024/01/03 09:47:08;;;;;;;6.07;1.02;;;;;;;;;;4995345;28;99393;-80
2024/01/03 09:49:34;;;;;;;4.15;1.00;;;;;;;;;;4977242;28;100761;-81
2024/01/03 09:52:03;;;;;;;4.97;1.10;;;;;;;;;;4994082;28;98713;-80
2024/01/03 09:54:31;;;;;;;5.07;1.17;;;;;;;;;;5010776;28;98515;-79
2024/01/03 09:56:57;;;;;;;7.28;1.20;;;;;;;;;;4992059;28;99171;-79
2024/01/03 09:59:26;;;;;;;5.45;1.00;;;;;;;;;;4995565;28;98556;-80
2024/01/03 10:01:53;;;;;;;4.43;1.10;;;;;;;;;;4997613;28;99046;-81
2024/01/03 10:04:19;;;;;;;4.85;1.13;;;;;;;;;;4994248;28;101419;-82
2024/01/03 10:06:53;;;;;;;5.93;1.17;;;;;;;;;;4995467;28;101263;-81
2024/01/03 10:09:20;;;;;;;5.45;1.00;;;;;;;;;;4995980;28;99788;-79
2024/01/03 10:11:51;;;;;;;5.47;1.20;;;;;;;;;;4995587;28;98313;-82
2024/01/03 10:14:18;;;;;;;2.85;0.88;;;;;;;;;;4995157;28;98461;-82
2024/01/03 10:16:45;;;;;;;4.53;1.13;;;;;;;;;;4999412;28;99094;-81
2024/01/03 10:19:13;;;;;;;4.50;1.08;;;;;;;;;;5015594;28;98577;-79
2024/01/03 10:21:47;;;;;;;5.50;1.10;;;;;;;;;;4990966;28;101533;-80
2024/01/03 10:24:14;;;;;;;6.07;1.23;;;;;;;;;;4987912;28;101566;-78
2024/01/03 10:26:41;;;;;;;5.72;1.00;;;;;;;;;;4990564;28;100478;-80
2024/01/03 10:29:15;;;;;;;4.78;1.20;;;;;;;;;;5017834;27;101530;-80
2024/01/03 10:31:42;;;;;;;5.38;1.30;;;;;;;;;;5016570;27;98472;-81
2024/01/03 10:34:17;;;;;;;4.90;1.10;;;;;;;;;;4982900;28;100656;-80
2024/01/03 10:36:45;;;;;;;5.72;1.25;;;;;;;;;;5013624;27;103158;-80
2024/01/03 10:39:16;;;;;;;4.13;1.08;;;;;;;;;;5015868;28;98174;-79
2024/01/03 10:41:43;;;;;;;4.47;1.10;;;;;;;;;;5015421;28;98437;-80
2024/01/03 10:44:11;;;;;;;5.13;1.10;;;;;;;;;;4998810;28;99063;-80
2024/01/03 10:46:37;;;;;;;5.65;1.23;;;;;;;;;;5014918;28;98478;-81
2024/01/03 10:49:06;;;;;;;8.25;1.30;;;;;;;;;;5020372;28;98784;-79
2024/01/03 10:51:37;;;;;;;5.97;1.30;;;;;;;;;;5000247;27;97813;-78
2024/01/03 10:54:04;;;;;;;5.38;1.17;;;;;;;;;;4997203;28;98117;-81
2024/01/03 10:56:33;;;;;;;6.50;1.20;;;;;;;;;;5014799;28;98770;-80
2024/01/03 10:59:00;;;;;;;7.88;1.33;;;;;;;;;;5010085;28;98869;-80
2024/01/03 11:01:29;;;;;;;6.03;1.20;;;;;;;;;;4992988;28;101412;-80
2024/01/03 11:03:56;;;;;;;7.90;1.58;;;;;;;;;;5006832;28;99270;-80
2024/01/03 11:06:41;;;;;;;7.32;1.60;;;;;;;;;;4987518;28;98164;-81
2024/01/03 11:09:08;;;;;;;6.65;1.58;;;;;;;;;;4995498;28;99130;-80
2024/01/03 11:11:35;;;;;;;;;;;;;;;;;;5012736;28;99667;-80
2024/01/03 11:14:20;;;;;;;7.53;1.48;;;;;;;;;;5004007;28;103908;-81
2024/01/03 11:16:47;;;;;;;7.78;1.50;;;;;;;;;;5013428;28;102691;-80
2024/01/03 11:19:13;;;;;;;7.43;1.40;;;;;;;;;;4996999;28;98645;-79
2024/01/03 11:21:41;;;;;;;7.00;1.40;;;;;;;;;;4998884;28;98386;-79
2024/01/03 11:24:20;;;;;;;9.68;1.52;;;;;;;;;;4996883;28;98935;-80
2024/01/03 11:26:53;;;;;;;6.22;1.30;;;;;;;;;;5017669;28;98307;-80
2024/01/03 11:29:35;;;;;;;8.40;1.50;;;;;;;;;;5018132;28;100789;-79
2024/01/03 11:32:05;;;;;;;6.93;1.42;;;;;;;;;;5021236;28;100996;-80
2024/01/03 11:34:31;;;;;;;;;;;;;;;;;;5015195;28;100630;-80
2024/01/03 11:36:58;;;;;;;6.97;1.35;;;;;;;;;;4982500;28;117729;-79
2024/01/03 11:39:31;;;;;;;9.45;1.65;;;;;;;;;;4999801;28;98642;-80
2024/01/03 11:41:58;;;;;;;5.20;1.25;;;;;;;;;;5012459;28;101076;-80
2024/01/03 11:44:25;;;;;;;;;;;;;;;;;;5007759;27;101047;-80
2024/01/03 11:46:57;;;;;;;9.43;1.60;;;;;;;;;;5020525;27;98438;-80
2024/01/03 11:49:23;;;;;;;5.85;1.42;;;;;;;;;;5018164;27;99026;-81
2024/01/03 11:51:50;;;;;;;10.90;1.73;;;;;;;;;;5002916;28;99111;-81
2024/01/03 11:54:17;;;;;;;5.85;1.25;;;;;;;;;;5017208;27;98222;-81
2024/01/03 11:56:44;;;;;;;8.90;1.80;;;;;;;;;;5018427;27;99253;-80
2024/01/03 11:59:11;;;;;;;9.02;2.00;;;;;;;;;;5017575;28;98165;-80
2024/01/03 12:01:38;;;;;;;7.63;1.60;;;;;;;;;;5019421;27;98705;-81
2024/01/03 12:04:11;;;;;;;8.57;1.60;;;;;;;;;;5018711;28;98929;-79
2024/01/03 12:06:39;;;;;;;6.93;1.50;;;;;;;;;;5001478;28;97479;-80
2024/01/03 12:09:06;;;;;;;7.07;1.65;;;;;;;;;;5009681;28;98472;-80
2024/01/03 12:11:34;;;;;;;7.30;1.70;;;;;;;;;;5013965;28;101998;-80
2024/01/03 12:14:00;;;;;;;8.60;1.73;;;;;;;;;;4997507;28;99260;-80
2024/01/03 12:16:27;;;;;;;7.50;1.75;;;;;;;;;;4999075;28;101441;-81
2024/01/03 12:18:53;;;;;;;8.45;1.58;;;;;;;;;;4998523;28;98179;-81
2024/01/03 12:21:21;;;;;;;6.97;1.50;;;;;;;;;;4997746;28;98514;-81
2024/01/03 12:23:54;;;;;;;9.50;1.90;;;;;;;;;;4980214;28;100024;-82
2024/01/03 12:26:21;;;;;;;10.10;1.80;;;;;;;;;;4995905;28;99427;-84
2024/01/03 12:28:53;;;;;;;10.90;2.30;;;;;;;;;;4986366;28;101199;-84
2024/01/03 12:31:23;;;;;;;7.88;1.70;;;;;;;;;;4991303;28;100291;-84
2024/01/03 12:33:50;;;;;;;10.10;2.00;;;;;;;;;;4997311;28;98748;-84
2024/01/03 12:36:17;;;;;;;6.97;1.70;;;;;;;;;;4998208;28;98842;-85
2024/01/03 12:38:44;;;;;;;7.57;2.00;;;;;;;;;;5016950;27;99320;-84
2024/01/03 12:41:10;;;;;;;9.23;1.70;;;;;;;;;;4998202;28;99148;-84
2024/01/03 12:43:37;;;;;;;9.45;1.77;;;;;;;;;;4992631;28;101485;-84
2024/01/03 12:46:06;;;;;;;9.18;1.77;;;;;;;;;;5007918;28;98185;-84
2024/01/03 12:48:33;;;;;;;7.60;1.70;;;;;;;;;;5003514;27;99968;-84
2024/01/03 12:51:00;;;;;;;6.80;1.50;;;;;;;;;;5013984;27;99043;-82
2024/01/03 12:53:26;;;;;;;9.85;1.73;;;;;;;;;;4981422;28;98272;-82
2024/01/03 12:55:53;;;;;;;6.82;1.67;;;;;;;;;;4993258;28;98347;-84
2024/01/03 12:58:20;;;;;;;7.57;1.48;;;;;;;;;;4977162;28;98914;-83
2024/01/03 13:00:46;;;;;;;8.63;1.65;;;;;;;;;;5001647;28;98253;-84
2024/01/03 13:03:13;;;;;;;8.68;1.70;;;;;;;;;;5014869;28;102026;-82
2024/01/03 13:05:40;;;;;;;7.05;1.60;;;;;;;;;;5016054;28;98431;-81
2024/01/03 13:08:07;;;;;;;8.05;1.60;;;;;;;;;;5017470;28;98038;-80
2024/01/03 13:10:34;;;;;;;7.90;1.50;;;;;;;;;;5016541;27;99052;-80
2024/01/03 13:13:02;;;;;;;9.30;1.70;;;;;;;;;;5032989;28;98411;-82
2024/01/03 13:15:30;;;;;;;8.00;1.60;;;;;;;;;;5015936;28;98648;-81
2024/01/03 13:17:57;;;;;;;8.00;1.70;;;;;;;;;;5016173;28;98868;-81
2024/01/03 13:20:24;;;;;;;8.13;1.50;;;;;;;;;;5017148;27;97604;-81
2024/01/03 13:22:51;;;;;;;7.97;2.05;;;;;;;;;;5012493;28;100041;-82
2024/01/03 13:25:18;;;;;;;7.10;1.60;;;;;;;;;;5012335;28;98342;-81
2024/01/03 13:27:44;;;;;;;11.30;1.85;;;;;;;;;;5026307;28;101328;-80
2024/01/03 13:30:13;;;;;;;7.32;1.60;;;;;;;;;;5014870;28;99275;-82
2024/01/03 13:32:41;;;;;;;9.48;1.65;;;;;;;;;;5014893;28;100151;-80
2024/01/03 13:35:08;;;;;;;8.20;1.77;;;;;;;;;;5010977;28;98417;-81
2024/01/03 13:37:35;;;;;;;8.77;1.65;;;;;;;;;;5013876;28;101730;-80
2024/01/03 13:40:02;;;;;;;7.15;1.58;;;;;;;;;;5013010;28;98318;-81
2024/01/03 13:42:28;;;;;;;8.40;1.85;;;;;;;;;;5011301;28;99206;-80
2024/01/03 13:44:56;;;;;;;7.28;1.70;;;;;;;;;;5014615;28;98223;-82
2024/01/03 13:47:23;;;;;;;9.18;1.92;;;;;;;;;;5009311;28;98533;-80
2024/01/03 13:49:50;;;;;;;8.80;1.85;;;;;;;;;;5014266;28;99291;-80
2024/01/03 13:52:18;;;;;;;;;;;;;;;;;;4997943;27;98960;-82
2024/01/03 13:54:45;;;;;;;6.43;1.60;;;;;;;;;;5008913;28;99202;-81
2024/01/03 13:57:12;;;;;;;8.93;2.08;;;;;;;;;;5015222;28;98840;-81
2024/01/03 13:59:38;;;;;;;7.18;1.63;;;;;;;;;;5014675;28;98318;-79
2024/01/03 14:02:05;;;;;;;7.10;1.80;;;;;;;;;;4999113;28;100563;-81
2024/01/03 14:04:32;;;;;;;6.40;1.60;;;;;;;;;;5018883;28;101407;-79
2024/01/03 14:06:58;;;;;;;8.25;1.75;;;;;;;;;;5004835;28;101328;-80
2024/01/03 14:09:25;;;;;;;14.02;1.80;;;;;;;;;;5013976;28;97553;-80
2024/01/03 14:11:52;;;;;;;6.40;1.65;;;;;;;;;;5015322;28;98424;-82
2024/01/03 14:14:20;;;;;;;6.68;1.42;;;;;;;;;;4984203;28;101375;-79
2024/01/03 14:16:46;;;;;;;5.65;1.50;;;;;;;;;;4979222;28;99674;-79
2024/01/03 14:19:13;;;;;;;8.98;1.50;;;;;;;;;;5002019;28;98150;-80
2024/01/03 14:21:41;;;;;;;9.60;1.90;;;;;;;;;;4995617;28;98480;-80
2024/01/03 14:24:08;;;;;;;8.70;1.80;;;;;;;;;;4993623;28;101885;-81
2024/01/03 14:26:34;;;;;;;6.63;1.38;;;;;;;;;;4996359;28;98373;-80
2024/01/03 14:29:03;;;;;;;6.57;1.60;;;;;;;;;;5000689;28;99030;-83
2024/01/03 14:31:30;;;;;;;8.77;1.77;;;;;;;;;;5014140;28;98448;-82
2024/01/03 14:33:57;;;;;;;7.38;1.58;;;;;;;;;;5014251;28;99965;-79
2024/01/03 14:36:24;;;;;;;6.03;1.45;;;;;;;;;;5009458;27;101605;-79
2024/01/03 14:38:51;;;;;;;8.27;1.48;;;;;;;;;;4995261;27;98482;-80